Sun, 2017 November 19. @ 02:03 (Europe/Berlin) | Change timezone

Search

Search

Find competitions and teams quickly

Compare

Compare

Click on this h2h icon anywhere to compare teams and see statistics

Fixtures

Fixtures

View today's matches, tomorrow's fixtures, yesterday's results or fixtures on any specific date by using the calendar


Fixtures - 2017.11.16

Group by: leagues | time
Time Home Score Away 1 X 2 H2H
 Soccer Albania Super League 2017/2018
14:00 Laci SK 1 : 0 Partizani Tirana 3.15 2.80 2.30
14:00 Kamza KS 2 : 2 Kukesi KS 2.70 2.75 2.65
17:00 Flamurtari Vlorë 1 : 1 Skenderbeu Korca 3.60 2.90 2.05
 Soccer Australia A-League 2017/2018
09:50 Central Coast Mariners 1 : 2 Adelaide United 2.45 3.33 2.69
 Basketball Austria Basketball Bundesliga 2017/2018
19:00 Oberwart Gunners 88 : 76 Vienna Basket Clubs 1.45 - 2.50
 Hockey Austria Eishockey Liga 2017/2018
19:15 Innsbruck 4 : 1 Dornbirn 1.72 4.66 3.44
 Basketball Basketball NBA 2017/2018
01:30 New York 106 : 101 Utah 1.60 10.50 2.45
01:30 Miami 93 : 102 Washington 1.90 10.00 2.00
01:30 Atlanta 126 : 80 Sacramento 1.52 10.50 2.65
02:00 New Orleans 116 : 125 Toronto 1.75 10.50 2.15
02:00 Oklahoma City 92 : 79 Chicago 1.12 12.00 6.50
02:00 Charlotte Bobcats 107 : 115 Cleveland 1.95 11.00 1.88
02:00 Minnesota 98 : 86 San Antonio 1.58 10.50 2.50
02:00 Memphis 113 : 116 Indiana 1.70 10.50 2.25
02:00 Milwaukee 99 : 95 Detroit 1.55 10.50 2.60
04:00 Portland 99 : 94 Orlando 1.55 10.50 2.60
04:30 L.A.Lakers 109 : 115 Philadelphia 2.25 10.50 1.70
 Soccer Brazil Serie A 2017
00:45 Vasco da Gama 1 : 1 Atlético Mineiro 2.54 3.12 2.65
00:45 Corinthians 3 : 1 Fluminense 1.51 3.82 6.30
23:00 Botafogo 1 : 2 Atletico Goianiense 1.43 4.14 6.80
23:00 Palmeiras 5 : 1 Sport Recife 1.48 4.15 5.70
23:00 Chapecoense AF 2 : 1 Vitória 2.20 3.21 3.10
 Hockey CHL Kontinental Hockey League 2017/2018
10:30 Admiral Vladivostok 4 : 5 Dynamo Moskva 2.29 3.78 2.73
10:30 Chabarovsk Amur 2 : 3 Petrohrad 7.38 6.13 1.30
12:30 Red Star Kunlun 0 : 2 Dynamo Minsk 1.99 3.96 3.25
17:00 Čerepovec 2 : 5 Jekatěrinburg 2.51 3.86 2.44
17:00 Nižnyj Novgorod 1 : 4 Čeljabinsk 1.83 4.01 3.74
17:30 Spartak Moskva 4 : 2 Togliatti 1.77 4.24 3.74
18:30 Dinamo Riga 0 : 3 Magnitogorsk 3.46 4.11 1.86
 Handball CL Champions League M 2017/2018
19:00 Velenje Gorenje RK 33 : 29 Dinamo Bucuresti 1.08 18.50 11.25
20:15 Kadetten Schaffhausen 23 : 24 Caja Espana Ademar 1.72 8.63 2.65
 Soccer Colombia Primera División 2017
02:00 Atlético Junior 2 : 2 Itagui Ditaires 1.25 4.79 11.40
 Hockey Czech Republic 1st League 2017/2018
17:30 Benátky 4 : 5 ot(p) P 2.56 4.13 2.12
18:00 Ústí n. Labem 0 : 2 Havířov 2.01 4.22 2.68
 Basketball Denmark 1st League M 2017/2018
18:15 Copenhagen Wolfpack 55 : 82 Horsholm 7.25 - 1.05
 Handball Denmark 1st League M 2017/2018
19:00 Skanderborg 24 : 20 Bjerringbro FH 5.56 13.25 1.20
20:30 Skjern 27 : 22 Sonderjyske 1.08 16.25 9.88
 Hockey Denmark SuperBest-ligaen 2017/2018
19:00 Esbjerg 2 : 3 Totempo Hvidovre HVIK 1.30 6.25 6.50
 Soccer Ecuador Primera A 2017
02:00 Emelec Guayaquil 3 : 0 Barcelona 2.19 3.17 3.00
 Soccer England FA Cup 2017/2018
20:45 Billericay Town 1 : 3 Leatherhead 1.25 5.70 9.65
 Basketball Euroleague Euroleague M 2017/2018
18:00 Khimki BK 69 : 77 Maccabi Tel Aviv 1.35 13.00 3.15
18:30 Pilsen Istanbul 81 : 82 Panathinaikos Athens 2.10 11.50 1.75
19:00 Žalgiris Kaunas 77 : 97 Baskonia 1.68 12.00 2.20
21:00 Real Madrid Teka 89 : 57 Unicaja Malaga 1.22 14.00 4.30
 Hockey Finland SM Liiga 2017/2018
17:30 Ässät Pori 1 : 3 Jyp Jyväskylä 2.79 4.14 2.11
17:30 Sport Vaasa 1 : 3 Jukurit Mikkeli 1.74 4.26 3.78
 Handball France D1M 2017/2018
20:45 Toulouse 27 : 29 Nimes 1.73 8.44 2.54
 Soccer France National 2017/2018
20:00 Pau 2 : 2 Sannois 2.05 2.88 3.66
 Handball Germany Bundesliga M 2017/2018
19:00 Minden 29 : 37 Füchse Berlin 4.33 11.00 1.33
19:00 Flensburg-Handewitt 38 : 23 H 1.02 26.00 18.33
19:00 Kiel 29 : 19 Lemgo 1.15 15.00 7.31
19:00 Wetzlar 30 : 21 Friesenheim TSG 1.17 14.00 7.00
19:00 Magdeburg 28 : 22 Erlangen HC 1.08 18.75 10.88
19:00 Hannover-Burgdorf TSV 27 : 20 Stuttgart TVB 1.18 14.50 6.44
19:00 Melsungen 29 : 26 Rhein-Neckar-Löwen 4.10 9.88 1.37
 Hockey Germany DEL 2017/2018
19:30 Bremerhaven 4 : 5 ot(p) Norimberk 2.42 4.30 2.33
 Hockey Ice Hockey NHL 2017/2018
01:30 Detroit 8 : 2 Calgary 2.47 3.90 2.48
02:00 Chicago 6 : 3 NY Rangers 2.25 3.98 2.70
04:00 Anaheim 4 : 2 Boston 2.34 3.87 2.65
 Soccer Macedonia First League 2017/2018
13:00 Rabotnički 4 : 0 Pobeda Prilep 1.63 3.58 4.57
13:00 Pelister Bitola 3 : 4 Akademija Pandev 1.82 3.50 3.62
13:00 Sileks Krakovo 0 : 2 Shkendija 79 Tetovo 5.25 3.82 1.52
13:00 Renova FK 2 : 5 Vardar Skopje 4.16 3.56 1.69
 Hockey Norway Eliteserien 2017/2018
18:00 Stavanger 5 : 4 Manglerud 1.48 5.39 4.55
18:30 Storhamar 5 : 2 Lorenskog 1.20 7.56 8.38
18:30 Stjernen 5 : 2 Lillehammer 3.50 4.64 1.72
18:30 Kongsvinger 0 : 3 Sapsborg Sparta 7.38 7.38 1.23
 Handball Poland 1.liga W 2017/2018
18:00 Piotrkow Piotrcovia 23 : 37 Elblag Start 6.00 11.50 1.18
 Soccer Portugal Taça de Portugal 2017/2018
21:30 Sporting Lisabon 2 : 0 Famalicao 1.16 6.50 12.80
 Hockey Sweden Elitserien 2017/2018
19:00 Skelleftea AIK 6 : 5 Farjestad 1.93 4.34 3.15
19:00 Lulea HF 4 : 3 ot(p) Frolunda 2.54 3.97 2.36
19:00 Örebro HK 2 : 0 Rogle BK 1.60 4.81 4.28
19:00 Linköpings 1 : 2 ot(p) HV 71 2.19 4.22 2.67
19:00 Mora IK 4 : 3 ot Karlskrona HK 2.35 4.05 2.51
19:00 Djurgarden IF 3 : 4 ot(p) Vaxjö Lakers HC 2.51 4.15 2.35
19:00 Malmo IF 3 : 1 Brynas Gavle 1.78 4.36 3.64
 Handball Sweden Elitserien M 2017/2018
19:00 Kristianstad IFK 39 : 29 Skövde HK IFK 1.06 18.50 11.69
19:00 Ricoh HK 25 : 22 Karlskrona IFK 1.44 9.63 3.46
 Hockey Switzerland Nationalliga A 2017/2018
19:45 Servette GE 0 : 3 Zug 2.12 4.49 2.65
 Soccer Uruguay Primera Division 2017
21:00 Danubio 0 : 2 Peňarol 4.07 3.60 2.57
21:00 Rampla Juniors 1 : 0 Boston River 2.28 3.21 2.86
23:30 Defensor Sporting 2 : 2 Liverpool Montevideo 1.50 3.92 5.59

Sport statistics

  • soccer, basketball, handball and icehockey statistics from more than 150 leagues (results, tables, fixtures, other usefull statistics, bookies odds etc.)
  • other useful things: comparision of teams and leagues, streaks, selections, predictions, head-to-head
  • the statistics are updated three times each day
  • RSS feeds for the upcoming matches from each sport, just click on the RSS feed in the URL field of your browser
  • archived competitions, most of them from 2003

For a detailed description of all functions and their usage check our Help page.